createdAt,value
2022-09-07T00:00:55.446Z,3.98
2022-09-07T00:02:55.483Z,4.48
2022-09-07T00:04:55.420Z,4.47
2022-09-07T00:05:55.438Z,4.41
2022-09-07T00:06:55.424Z,4.01
2022-09-07T00:07:55.447Z,3.54
2022-09-07T00:08:55.430Z,4.19
2022-09-07T00:09:55.431Z,4.30
2022-09-07T00:10:55.433Z,3.51
2022-09-07T00:11:55.461Z,4.14
2022-09-07T00:12:55.448Z,4.13
2022-09-07T00:14:55.480Z,3.84
2022-09-07T00:15:55.507Z,4.20
2022-09-07T00:16:55.453Z,4.56
2022-09-07T00:17:55.457Z,3.60
2022-09-07T00:18:55.471Z,4.08
2022-09-07T00:19:55.456Z,4.76
2022-09-07T00:20:55.479Z,4.10
2022-09-07T00:21:55.461Z,4.30
2022-09-07T00:22:55.482Z,4.48
2022-09-07T00:23:55.481Z,3.90
2022-09-07T00:24:55.511Z,4.51
2022-09-07T00:25:55.463Z,4.04
2022-09-07T00:26:55.477Z,5.00
2022-09-07T00:27:55.504Z,5.05
2022-09-07T00:28:55.492Z,4.68
2022-09-07T00:29:55.501Z,4.44
2022-09-07T00:30:55.500Z,4.45
2022-09-07T00:31:55.678Z,4.37
2022-09-07T00:32:55.496Z,4.38
2022-09-07T00:33:55.520Z,4.85
2022-09-07T00:34:55.535Z,4.87
2022-09-07T00:36:55.527Z,4.51
2022-09-07T00:37:55.500Z,5.21
2022-09-07T00:38:55.517Z,4.40
2022-09-07T00:39:55.573Z,4.28
2022-09-07T00:41:55.530Z,4.30
2022-09-07T00:42:55.540Z,4.23
2022-09-07T00:43:55.537Z,3.87
2022-09-07T00:44:55.549Z,4.12
2022-09-07T00:45:55.528Z,4.52
2022-09-07T00:46:55.589Z,3.87
2022-09-07T00:47:55.527Z,3.59
2022-09-07T00:48:55.555Z,4.12
2022-09-07T00:49:55.549Z,4.05
2022-09-07T00:50:55.563Z,3.87
2022-09-07T00:51:55.559Z,3.95
2022-09-07T00:52:55.552Z,3.64
2022-09-07T00:53:55.555Z,4.00
2022-09-07T00:54:55.586Z,3.44
2022-09-07T00:55:55.577Z,3.87
2022-09-07T00:56:55.569Z,3.84
2022-09-07T00:57:55.550Z,3.79
2022-09-07T00:58:55.574Z,4.60
2022-09-07T00:59:55.576Z,3.87
2022-09-07T01:00:55.583Z,3.99
2022-09-07T01:01:55.682Z,3.81
2022-09-07T01:02:55.697Z,4.63
2022-09-07T01:03:55.581Z,3.92
2022-09-07T01:04:55.778Z,3.91
2022-09-07T01:07:55.600Z,4.38
2022-09-07T01:09:55.621Z,3.61
2022-09-07T01:10:55.593Z,3.88
2022-09-07T01:11:55.594Z,4.12
2022-09-07T01:12:55.593Z,4.31
2022-09-07T01:13:55.602Z,3.96
2022-09-07T01:14:55.641Z,4.30
2022-09-07T01:15:55.682Z,3.99
2022-09-07T01:16:55.600Z,3.42
2022-09-07T01:17:55.611Z,3.75
2022-09-07T01:18:55.622Z,3.73
2022-09-07T01:19:55.625Z,4.14
2022-09-07T01:20:55.616Z,3.39
2022-09-07T01:21:55.620Z,3.33
2022-09-07T01:22:55.623Z,3.72
2022-09-07T01:23:55.627Z,4.05
2022-09-07T01:24:55.649Z,3.56
2022-09-07T01:25:55.641Z,3.49
2022-09-07T01:26:55.631Z,3.67
2022-09-07T01:27:55.660Z,3.67
2022-09-07T01:28:55.638Z,3.70
2022-09-07T01:29:55.655Z,3.86
2022-09-07T01:30:55.722Z,3.98
2022-09-07T01:34:55.673Z,3.66
2022-09-07T01:35:55.672Z,3.56
2022-09-07T01:37:57.213Z,3.57
2022-09-07T01:38:55.667Z,3.57
2022-09-07T01:39:55.736Z,3.41
2022-09-07T01:41:55.702Z,3.03
2022-09-07T01:42:55.676Z,3.34
2022-09-07T01:43:55.677Z,3.34
2022-09-07T01:44:55.695Z,2.80
2022-09-07T01:46:55.713Z,3.14
2022-09-07T01:47:55.720Z,3.09
2022-09-07T01:48:55.714Z,3.12
2022-09-07T01:49:55.729Z,3.77
2022-09-07T01:50:55.710Z,3.43
2022-09-07T01:51:55.712Z,3.04
2022-09-07T01:52:55.720Z,3.26
2022-09-07T01:53:55.705Z,3.20
2022-09-07T01:54:55.707Z,3.56
2022-09-07T01:55:55.707Z,3.49
2022-09-07T01:56:55.712Z,2.86
2022-09-07T01:57:55.714Z,2.55
2022-09-07T01:58:55.735Z,3.66
2022-09-07T02:00:55.747Z,3.16
2022-09-07T02:02:55.800Z,2.95
2022-09-07T02:03:55.736Z,3.17
2022-09-07T02:04:55.741Z,2.92
2022-09-07T02:05:55.736Z,2.81
2022-09-07T02:06:55.758Z,3.03
2022-09-07T02:07:55.751Z,2.99
2022-09-07T02:08:55.770Z,2.81
2022-09-07T02:10:55.768Z,3.51
2022-09-07T02:11:55.764Z,3.08
2022-09-07T02:14:55.769Z,3.53
2022-09-07T02:15:55.795Z,3.22
2022-09-07T02:16:55.767Z,3.72
2022-09-07T02:17:55.777Z,3.37
2022-09-07T02:19:55.773Z,3.18
2022-09-07T02:20:55.791Z,3.10
2022-09-07T02:21:55.790Z,3.19
2022-09-07T02:22:55.820Z,3.50
2022-09-07T02:23:55.775Z,3.25
2022-09-07T02:24:55.797Z,3.49
2022-09-07T02:26:55.823Z,3.11
2022-09-07T02:27:55.794Z,3.32
2022-09-07T02:29:55.794Z,3.42
2022-09-07T02:30:55.834Z,2.71
2022-09-07T02:31:55.826Z,3.42
2022-09-07T02:32:55.809Z,3.42
2022-09-07T02:33:55.823Z,3.48
2022-09-07T02:34:55.801Z,3.06
2022-09-07T02:35:55.809Z,3.07
2022-09-07T02:36:55.830Z,2.87
2022-09-07T02:37:55.850Z,3.11
2022-09-07T02:38:55.856Z,2.95
2022-09-07T02:40:55.836Z,3.25
2022-09-07T02:41:55.819Z,3.88
2022-09-07T02:42:55.874Z,3.45
2022-09-07T02:43:55.839Z,3.41
2022-09-07T02:44:55.830Z,3.35
2022-09-07T02:45:55.957Z,2.86
2022-09-07T02:46:55.862Z,2.98
2022-09-07T02:47:55.862Z,3.42
2022-09-07T02:48:55.833Z,3.33
2022-09-07T02:49:55.858Z,3.81
2022-09-07T02:50:55.853Z,3.09
2022-09-07T02:51:55.879Z,2.39
2022-09-07T02:52:55.881Z,3.57
2022-09-07T02:53:55.862Z,3.06
2022-09-07T02:54:55.872Z,3.33
2022-09-07T02:55:55.878Z,2.84
2022-09-07T02:56:55.877Z,3.47
2022-09-07T02:57:55.875Z,3.07
2022-09-07T02:58:55.880Z,3.22
2022-09-07T02:59:55.872Z,3.64
2022-09-07T03:00:56.083Z,3.30
2022-09-07T03:01:55.909Z,3.22
2022-09-07T03:02:55.930Z,3.50
2022-09-07T03:03:55.884Z,3.65
2022-09-07T03:04:55.889Z,3.66
2022-09-07T03:05:55.904Z,3.84
2022-09-07T03:07:55.914Z,3.48
2022-09-07T03:09:55.896Z,3.96
2022-09-07T03:10:55.913Z,3.53
2022-09-07T03:12:55.929Z,3.72
2022-09-07T03:15:56.480Z,3.26
2022-09-07T03:16:55.926Z,3.61
2022-09-07T03:17:55.969Z,3.49
2022-09-07T03:20:55.961Z,4.08
2022-09-07T03:21:55.935Z,3.45
2022-09-07T03:22:55.933Z,4.01
2022-09-07T03:23:55.960Z,3.24
2022-09-07T03:25:55.957Z,3.88
2022-09-07T03:26:55.942Z,3.88
2022-09-07T03:33:55.989Z,3.76
2022-09-07T03:34:55.986Z,3.63
2022-09-07T03:37:55.982Z,3.13
2022-09-07T03:40:56.002Z,4.07
2022-09-07T03:41:56.001Z,3.61
2022-09-07T03:44:56.007Z,3.96
2022-09-07T03:45:56.065Z,3.48
2022-09-07T03:46:56.014Z,3.35
2022-09-07T03:49:56.017Z,3.33
2022-09-07T03:51:56.024Z,4.16
2022-09-07T03:52:56.023Z,3.60
2022-09-07T03:53:56.027Z,3.83
2022-09-07T03:54:56.016Z,3.66
2022-09-07T03:55:56.020Z,4.36
2022-09-07T03:56:56.034Z,4.31
2022-09-07T03:57:56.040Z,3.84
2022-09-07T03:58:56.027Z,4.34
2022-09-07T03:59:56.051Z,4.43
2022-09-07T04:00:56.044Z,4.11
2022-09-07T04:01:56.063Z,4.05
2022-09-07T04:02:56.138Z,4.00
2022-09-07T04:03:59.953Z,3.71
2022-09-07T04:04:56.049Z,4.08
2022-09-07T04:05:56.053Z,4.09
2022-09-07T04:06:56.054Z,3.86
2022-09-07T04:07:56.065Z,3.46
2022-09-07T04:08:56.048Z,3.76
2022-09-07T04:11:56.055Z,4.03
2022-09-07T04:12:56.091Z,3.97
2022-09-07T04:13:56.079Z,3.49
2022-09-07T04:15:56.082Z,3.57
2022-09-07T04:16:56.124Z,3.91
2022-09-07T04:17:56.064Z,4.06
2022-09-07T04:21:56.107Z,4.75
2022-09-07T04:22:56.090Z,4.28
2022-09-07T04:25:56.107Z,4.47
2022-09-07T04:28:56.142Z,4.66
2022-09-07T04:29:56.129Z,4.71
2022-09-07T04:31:56.104Z,4.62
2022-09-07T04:32:56.105Z,5.08
2022-09-07T04:33:56.120Z,4.65
2022-09-07T04:35:56.127Z,4.65
2022-09-07T04:42:56.163Z,4.20
2022-09-07T04:46:56.145Z,4.40
2022-09-07T04:47:56.166Z,4.86
2022-09-07T04:49:56.183Z,4.85
2022-09-07T04:51:56.179Z,4.68
2022-09-07T04:54:56.225Z,4.22
2022-09-07T04:56:56.182Z,4.60
2022-09-07T04:57:56.202Z,3.98
2022-09-07T04:58:56.185Z,4.50
2022-09-07T04:59:56.184Z,4.14
2022-09-07T05:00:56.237Z,4.67
2022-09-07T05:01:56.220Z,4.69
2022-09-07T05:02:56.187Z,4.24
2022-09-07T05:05:56.239Z,4.92
2022-09-07T05:06:56.214Z,4.86
2022-09-07T05:08:56.208Z,4.62
2022-09-07T05:09:56.214Z,4.83
2022-09-07T05:10:56.227Z,4.08
2022-09-07T05:12:56.231Z,5.31
2022-09-07T05:13:56.241Z,4.73
2022-09-07T05:15:56.259Z,4.80
2022-09-07T05:18:56.247Z,5.03
2022-09-07T05:23:56.327Z,5.47
2022-09-07T05:24:56.254Z,5.14
2022-09-07T05:26:57.687Z,5.64
2022-09-07T05:27:56.272Z,5.54
2022-09-07T05:31:19.039Z,5.63
2022-09-07T05:31:56.279Z,5.74
2022-09-07T05:34:56.290Z,5.86
2022-09-07T05:35:56.408Z,5.79
2022-09-07T05:36:56.306Z,6.09
2022-09-07T05:38:56.345Z,6.63
2022-09-07T05:39:56.383Z,6.49
2022-09-07T05:40:56.277Z,6.37
2022-09-07T05:41:56.311Z,6.38
2022-09-07T05:42:56.291Z,5.61
2022-09-07T05:44:56.335Z,5.89
2022-09-07T05:45:56.375Z,5.56
2022-09-07T05:46:56.306Z,5.62
2022-09-07T05:47:56.301Z,5.88
2022-09-07T05:48:56.311Z,5.46
2022-09-07T05:49:57.242Z,5.58
2022-09-07T05:50:56.316Z,5.81
2022-09-07T05:51:56.312Z,5.65
2022-09-07T05:52:56.323Z,5.94
2022-09-07T05:53:56.321Z,5.68
2022-09-07T05:55:07.429Z,5.07
2022-09-07T05:55:56.335Z,5.50
2022-09-07T05:56:56.342Z,5.04
2022-09-07T05:57:56.323Z,4.81
2022-09-07T05:58:56.345Z,4.44
2022-09-07T05:59:56.340Z,4.28
2022-09-07T06:00:56.332Z,5.10
2022-09-07T06:01:56.470Z,5.36
2022-09-07T06:02:56.456Z,4.62
2022-09-07T06:03:56.358Z,5.61
2022-09-07T06:04:56.402Z,4.98
2022-09-07T06:05:56.351Z,4.48
2022-09-07T06:07:20.522Z,4.54
2022-09-07T06:07:56.376Z,4.71
2022-09-07T06:08:56.373Z,4.61
2022-09-07T06:10:56.407Z,5.39
2022-09-07T06:11:56.371Z,5.57
2022-09-07T06:12:56.363Z,5.39
2022-09-07T06:13:56.378Z,4.95
2022-09-07T06:14:56.405Z,5.26
2022-09-07T06:15:56.391Z,4.82
2022-09-07T06:16:56.486Z,4.74
2022-09-07T06:17:56.397Z,5.63
2022-09-07T06:18:56.398Z,5.48
2022-09-07T06:19:56.478Z,4.70
2022-09-07T06:20:56.383Z,3.76
2022-09-07T06:21:56.407Z,4.00
2022-09-07T06:22:56.406Z,3.84
2022-09-07T06:23:56.398Z,3.32
2022-09-07T06:24:56.401Z,4.17
2022-09-07T06:25:56.408Z,2.76
2022-09-07T06:26:56.422Z,2.99
2022-09-07T06:27:56.416Z,3.30
2022-09-07T06:28:57.983Z,2.60
2022-09-07T06:29:56.491Z,3.17
2022-09-07T06:30:56.436Z,3.53
2022-09-07T06:32:56.446Z,2.53
2022-09-07T06:33:56.474Z,2.57
2022-09-07T06:34:56.423Z,3.09
2022-09-07T06:35:56.439Z,2.66
2022-09-07T06:36:56.450Z,2.67
2022-09-07T06:37:56.450Z,2.18
2022-09-07T06:38:56.454Z,3.28
2022-09-07T06:39:56.541Z,2.95
2022-09-07T06:42:56.463Z,2.61
2022-09-07T06:43:56.484Z,2.79
2022-09-07T06:44:56.463Z,2.53
2022-09-07T06:47:04.105Z,2.52
2022-09-07T06:47:56.485Z,2.89
2022-09-07T06:48:56.478Z,2.56
2022-09-07T06:49:56.513Z,2.61
2022-09-07T06:50:56.471Z,2.73
2022-09-07T06:51:56.489Z,2.45
2022-09-07T06:55:56.512Z,2.42
2022-09-07T06:56:56.522Z,2.62
2022-09-07T06:57:56.530Z,2.49
2022-09-07T06:58:56.513Z,2.29
2022-09-07T06:59:56.499Z,2.52
2022-09-07T07:00:56.641Z,2.49
2022-09-07T07:01:56.524Z,2.73
2022-09-07T07:02:56.588Z,2.87
2022-09-07T07:03:56.517Z,2.58
2022-09-07T07:04:56.566Z,2.36
2022-09-07T07:05:56.551Z,2.41
2022-09-07T07:06:56.532Z,2.46
2022-09-07T07:07:56.572Z,2.30
2022-09-07T07:08:56.562Z,1.99
2022-09-07T07:09:56.536Z,2.27
2022-09-07T07:10:56.539Z,2.18
2022-09-07T07:11:56.553Z,2.28
2022-09-07T07:12:56.533Z,2.25
2022-09-07T07:13:56.541Z,2.35
2022-09-07T07:15:56.656Z,2.29
2022-09-07T07:16:56.550Z,2.11
2022-09-07T07:18:05.164Z,2.43
2022-09-07T07:18:56.581Z,2.07
2022-09-07T07:19:56.562Z,2.37
2022-09-07T07:20:56.579Z,2.51
2022-09-07T07:22:23.492Z,2.57
2022-09-07T07:22:56.567Z,2.56
2022-09-07T07:23:56.550Z,2.37
2022-09-07T07:24:56.575Z,2.39
2022-09-07T07:25:56.584Z,2.66
2022-09-07T07:26:56.564Z,2.53
2022-09-07T07:27:56.916Z,2.59
2022-09-07T07:29:56.587Z,2.07
2022-09-07T07:30:56.629Z,2.04
2022-09-07T07:31:56.583Z,2.49
2022-09-07T07:32:56.637Z,2.18
2022-09-07T07:33:56.635Z,2.23
2022-09-07T07:34:56.578Z,1.84
2022-09-07T07:35:56.609Z,2.31
2022-09-07T07:36:56.607Z,1.77
2022-09-07T07:41:58.923Z,2.09
2022-09-07T07:42:56.608Z,2.06
2022-09-07T07:43:56.629Z,2.29
2022-09-07T07:45:56.778Z,2.83
2022-09-07T07:46:56.660Z,2.20
2022-09-07T07:47:56.677Z,2.02
2022-09-07T07:48:56.627Z,1.53
2022-09-07T07:50:56.636Z,1.59
2022-09-07T07:53:56.874Z,2.44
2022-09-07T07:54:56.673Z,1.98
2022-09-07T07:55:56.652Z,1.79
2022-09-07T07:56:56.669Z,2.50
2022-09-07T07:57:56.678Z,2.30
2022-09-07T07:58:56.648Z,2.60
2022-09-07T07:59:56.661Z,2.45
2022-09-07T08:00:57.096Z,2.63
2022-09-07T08:01:56.837Z,2.24
2022-09-07T08:02:56.676Z,2.22
2022-09-07T08:03:56.666Z,2.23
2022-09-07T08:04:56.684Z,2.22
2022-09-07T08:05:56.721Z,2.46
2022-09-07T08:07:56.695Z,2.10
2022-09-07T08:08:56.679Z,1.91
2022-09-07T08:09:56.705Z,2.04
2022-09-07T08:10:56.676Z,1.97
2022-09-07T08:11:56.722Z,2.11
2022-09-07T08:12:56.687Z,2.03
2022-09-07T08:13:56.704Z,2.02
2022-09-07T08:14:56.709Z,1.94
2022-09-07T08:15:56.739Z,2.14
2022-09-07T08:16:56.713Z,2.37
2022-09-07T08:17:56.711Z,1.75
2022-09-07T08:18:56.700Z,2.23
2022-09-07T08:19:56.697Z,2.27
2022-09-07T08:20:56.736Z,1.88
2022-09-07T08:21:56.739Z,1.98
2022-09-07T08:22:56.743Z,1.87
2022-09-07T08:23:56.718Z,2.15
2022-09-07T08:24:56.723Z,2.42
2022-09-07T08:25:56.726Z,2.15
2022-09-07T08:26:56.744Z,1.52
2022-09-07T08:27:56.736Z,2.15
2022-09-07T08:28:56.731Z,1.91
2022-09-07T08:29:56.735Z,2.13
2022-09-07T08:30:56.765Z,1.97
2022-09-07T08:31:56.833Z,2.12
2022-09-07T08:32:56.747Z,1.98
2022-09-07T08:33:56.777Z,2.29
2022-09-07T08:34:56.742Z,2.52
2022-09-07T08:35:56.767Z,2.00
2022-09-07T08:36:56.767Z,2.07
2022-09-07T08:37:56.757Z,2.32
2022-09-07T08:38:56.772Z,2.13
2022-09-07T08:39:56.841Z,1.99
2022-09-07T08:40:56.800Z,2.29
2022-09-07T08:41:56.782Z,2.12
2022-09-07T08:42:56.788Z,2.25
2022-09-07T08:43:56.788Z,2.44
2022-09-07T08:44:56.773Z,2.19
2022-09-07T08:45:56.775Z,2.38
2022-09-07T08:46:56.866Z,1.73
2022-09-07T08:47:56.790Z,2.09
2022-09-07T08:48:56.774Z,2.14
2022-09-07T08:49:56.782Z,1.79
2022-09-07T08:50:56.844Z,2.01
2022-09-07T08:51:56.793Z,2.26
2022-09-07T08:52:56.793Z,2.11
2022-09-07T08:53:56.815Z,1.76
2022-09-07T08:54:56.823Z,2.10
2022-09-07T08:55:56.817Z,1.87
2022-09-07T08:57:21.404Z,2.05
2022-09-07T08:57:56.814Z,2.33
2022-09-07T08:58:56.828Z,1.68
2022-09-07T08:59:56.829Z,2.36
2022-09-07T09:02:27.612Z,1.88
2022-09-07T09:04:17.622Z,1.82
2022-09-07T09:05:18.534Z,2.16
2022-09-07T09:05:56.924Z,2.06
2022-09-07T09:06:56.997Z,2.39
2022-09-07T09:07:56.858Z,2.22
2022-09-07T09:08:56.870Z,2.44
2022-09-07T09:09:56.839Z,1.88
2022-09-07T09:10:56.880Z,2.30
2022-09-07T09:11:56.874Z,1.88
2022-09-07T09:12:56.847Z,2.07
2022-09-07T09:13:56.865Z,2.13
2022-09-07T09:14:56.879Z,2.11
2022-09-07T09:15:56.953Z,1.96
2022-09-07T09:16:56.863Z,2.18
2022-09-07T09:17:56.869Z,1.97
2022-09-07T09:18:56.877Z,2.12
2022-09-07T09:19:56.871Z,2.35
2022-09-07T09:20:56.910Z,2.62
2022-09-07T09:21:56.870Z,2.33
2022-09-07T09:22:56.900Z,2.34
2022-09-07T09:23:56.876Z,2.14
2022-09-07T09:24:56.893Z,2.26
2022-09-07T09:25:56.884Z,2.11
2022-09-07T09:26:56.886Z,1.87
2022-09-07T09:27:56.905Z,2.55
2022-09-07T09:28:56.892Z,1.80
2022-09-07T09:29:56.896Z,2.23
2022-09-07T09:30:57.030Z,2.22
2022-09-07T09:31:56.903Z,2.32
2022-09-07T09:32:56.911Z,2.12
2022-09-07T09:33:56.930Z,1.79
2022-09-07T09:34:56.910Z,2.23
2022-09-07T09:35:56.938Z,2.24
2022-09-07T09:36:56.971Z,1.91
2022-09-07T09:37:56.915Z,2.37
2022-09-07T09:38:56.938Z,2.49
2022-09-07T09:39:59.246Z,2.08
2022-09-07T09:40:56.921Z,1.81
2022-09-07T09:41:56.925Z,1.73
2022-09-07T09:42:57.035Z,2.40
2022-09-07T09:43:56.956Z,2.14
2022-09-07T09:44:56.938Z,1.93
2022-09-07T09:46:12.650Z,2.54
2022-09-07T09:47:57.020Z,1.87
2022-09-07T09:48:56.965Z,2.30
2022-09-07T09:49:56.958Z,2.13
2022-09-07T09:52:56.978Z,2.73
2022-09-07T09:53:56.968Z,2.40
2022-09-07T09:55:03.436Z,2.21
2022-09-07T09:55:56.984Z,2.48
2022-09-07T09:56:56.982Z,2.57
2022-09-07T09:59:56.117Z,2.36
2022-09-07T10:00:00.341Z,1.97
2022-09-07T10:01:22.672Z,2.10
2022-09-07T10:03:59.135Z,2.67
2022-09-07T10:04:57.082Z,2.89
2022-09-07T10:05:57.025Z,2.23
2022-09-07T10:06:56.994Z,2.72
2022-09-07T10:07:57.016Z,2.73
2022-09-07T10:08:56.997Z,2.65
2022-09-07T10:09:57.009Z,2.70
2022-09-07T10:10:57.029Z,2.33
2022-09-07T10:12:06.998Z,2.39
2022-09-07T10:12:57.025Z,2.60
2022-09-07T10:13:57.040Z,2.96
2022-09-07T10:14:57.140Z,2.68
2022-09-07T10:15:57.115Z,2.45
2022-09-07T10:16:57.038Z,2.09
2022-09-07T10:17:57.116Z,2.06
2022-09-07T10:18:57.032Z,4.31
2022-09-07T10:19:57.048Z,2.45
2022-09-07T10:20:57.042Z,2.59
2022-09-07T10:21:57.041Z,2.57
2022-09-07T10:22:57.036Z,2.84
2022-09-07T10:23:57.060Z,2.92
2022-09-07T10:24:57.050Z,2.61
2022-09-07T10:25:57.119Z,3.16
2022-09-07T10:26:57.070Z,2.58
2022-09-07T10:27:57.064Z,2.79
2022-09-07T10:29:08.333Z,2.69
2022-09-07T10:29:57.103Z,2.53
2022-09-07T10:30:57.139Z,2.81
2022-09-07T10:31:57.121Z,2.87
2022-09-07T10:32:57.068Z,2.51
2022-09-07T10:34:26.356Z,3.21
2022-09-07T10:34:57.088Z,3.31
2022-09-07T10:35:57.089Z,2.61
2022-09-07T10:36:57.100Z,2.24
2022-09-07T10:37:57.082Z,2.28
2022-09-07T10:38:57.092Z,2.54
2022-09-07T10:40:00.404Z,2.53
2022-09-07T10:40:57.116Z,2.52
2022-09-07T10:43:21.788Z,3.29
2022-09-07T10:44:57.118Z,2.37
2022-09-07T10:45:57.186Z,2.85
2022-09-07T10:46:57.744Z,2.62
2022-09-07T10:47:57.116Z,2.67
2022-09-07T10:48:57.119Z,2.70
2022-09-07T10:50:22.906Z,2.71
2022-09-07T10:51:57.162Z,2.82
2022-09-07T10:52:57.152Z,2.93
2022-09-07T10:54:57.152Z,2.60
2022-09-07T10:56:57.151Z,3.02
2022-09-07T10:57:57.162Z,2.46
2022-09-07T10:59:03.910Z,2.55
2022-09-07T11:00:57.157Z,2.49
2022-09-07T11:01:57.203Z,2.73
2022-09-07T11:03:35.257Z,2.47
2022-09-07T11:03:57.263Z,2.49
2022-09-07T11:04:57.172Z,2.77
2022-09-07T11:05:57.176Z,3.03
2022-09-07T11:06:57.174Z,2.97
2022-09-07T11:09:18.078Z,2.81
2022-09-07T11:10:57.183Z,2.89
2022-09-07T11:12:57.228Z,3.39
2022-09-07T11:14:12.613Z,2.16
2022-09-07T11:14:57.228Z,2.89
2022-09-07T11:15:57.250Z,3.10
2022-09-07T11:16:57.339Z,2.80
2022-09-07T11:17:57.220Z,3.10
2022-09-07T11:19:35.104Z,3.14
2022-09-07T11:19:57.220Z,2.96
2022-09-07T11:20:57.229Z,2.43
2022-09-07T11:21:57.349Z,3.31
2022-09-07T11:22:57.217Z,3.47
2022-09-07T11:23:57.212Z,2.64
2022-09-07T11:25:57.228Z,2.81
2022-09-07T11:26:57.234Z,2.90
2022-09-07T11:27:57.244Z,2.84
2022-09-07T11:29:57.240Z,2.81
2022-09-07T11:31:00.090Z,2.80
2022-09-07T11:31:57.236Z,3.23
2022-09-07T11:32:57.228Z,2.86
2022-09-07T11:34:24.618Z,2.71
2022-09-07T11:34:57.234Z,2.80
2022-09-07T11:35:57.255Z,2.97
2022-09-07T11:36:57.287Z,3.35
2022-09-07T11:37:57.257Z,3.04
2022-09-07T11:38:57.269Z,2.99
2022-09-07T11:39:57.318Z,3.22
2022-09-07T11:40:57.277Z,2.69
2022-09-07T11:41:57.526Z,2.78
2022-09-07T11:42:57.294Z,3.18
2022-09-07T11:43:57.259Z,2.72
2022-09-07T11:44:57.282Z,2.89
2022-09-07T11:46:57.283Z,2.43
2022-09-07T11:47:57.275Z,3.24
2022-09-07T11:48:57.298Z,2.77
2022-09-07T11:49:59.311Z,2.83
2022-09-07T11:50:57.277Z,2.77
2022-09-07T11:51:57.275Z,3.12
2022-09-07T11:52:57.291Z,2.76
2022-09-07T11:53:57.299Z,2.80
2022-09-07T11:55:57.284Z,2.83
2022-09-07T11:56:57.301Z,3.20
2022-09-07T11:57:57.333Z,2.98
2022-09-07T11:58:57.330Z,2.99
2022-09-07T11:59:57.301Z,3.16
2022-09-07T12:00:57.311Z,3.19
2022-09-07T12:01:57.316Z,2.94
2022-09-07T12:02:59.327Z,3.03
2022-09-07T12:03:57.434Z,3.38
2022-09-07T12:04:57.509Z,2.75
2022-09-07T12:05:57.322Z,2.72
2022-09-07T12:06:57.337Z,2.92
2022-09-07T12:07:57.330Z,3.40
2022-09-07T12:08:57.341Z,2.89
2022-09-07T12:09:57.351Z,3.20
2022-09-07T12:10:57.360Z,2.69
2022-09-07T12:11:57.355Z,2.68
2022-09-07T12:12:57.345Z,2.95
2022-09-07T12:13:57.363Z,3.05
2022-09-07T12:14:57.364Z,2.77
2022-09-07T12:15:57.386Z,2.68
2022-09-07T12:16:57.375Z,3.17
2022-09-07T12:17:57.374Z,2.58
2022-09-07T12:18:57.372Z,3.13
2022-09-07T12:19:57.364Z,2.64
2022-09-07T12:20:57.360Z,3.03
2022-09-07T12:21:57.372Z,2.65
2022-09-07T12:23:02.239Z,2.70
2022-09-07T12:23:57.368Z,3.19
2022-09-07T12:24:57.364Z,2.66
2022-09-07T12:25:57.401Z,2.88
2022-09-07T12:26:57.385Z,2.69
2022-09-07T12:28:57.379Z,2.35
2022-09-07T12:29:57.387Z,2.19
2022-09-07T12:30:57.433Z,2.39
2022-09-07T12:31:59.242Z,2.19
2022-09-07T12:32:58.565Z,2.61
2022-09-07T12:33:57.405Z,2.40
2022-09-07T12:34:57.403Z,2.42
2022-09-07T12:35:57.440Z,2.39
2022-09-07T12:36:57.400Z,2.33
2022-09-07T12:37:57.404Z,2.65
2022-09-07T12:38:57.412Z,2.67
2022-09-07T12:39:57.505Z,2.35
2022-09-07T12:40:57.481Z,2.41
2022-09-07T12:42:57.417Z,2.72
2022-09-07T12:43:57.433Z,2.96
2022-09-07T12:44:57.433Z,2.81
2022-09-07T12:45:57.536Z,3.86
2022-09-07T12:46:57.444Z,3.94
2022-09-07T12:47:57.427Z,3.08
2022-09-07T12:48:57.427Z,2.90
2022-09-07T12:49:57.441Z,2.92
2022-09-07T12:52:08.822Z,2.14
2022-09-07T12:52:57.480Z,2.11
2022-09-07T12:53:57.878Z,3.07
2022-09-07T12:58:57.503Z,2.46
2022-09-07T12:59:57.469Z,2.61
2022-09-07T13:00:57.516Z,2.29
2022-09-07T13:01:57.632Z,1.99
2022-09-07T13:02:57.462Z,2.29
2022-09-07T13:03:57.474Z,2.15
2022-09-07T13:04:57.479Z,2.26
2022-09-07T13:05:57.491Z,2.28
2022-09-07T13:07:03.683Z,1.86
2022-09-07T13:08:04.313Z,2.23
2022-09-07T13:08:57.526Z,2.21
2022-09-07T13:09:57.502Z,2.18
2022-09-07T13:10:57.509Z,2.19
2022-09-07T13:11:57.500Z,4.32
2022-09-07T13:12:58.015Z,3.73
2022-09-07T13:14:08.568Z,3.17
2022-09-07T13:14:57.504Z,2.39
2022-09-07T13:15:57.542Z,2.82
2022-09-07T13:17:16.955Z,2.06
2022-09-07T13:17:57.523Z,2.01
2022-09-07T13:18:57.509Z,1.54
2022-09-07T13:21:57.521Z,1.67
2022-09-07T13:22:57.556Z,2.17
2022-09-07T13:23:57.876Z,2.12
2022-09-07T13:25:57.539Z,2.02
2022-09-07T13:26:57.545Z,1.81
2022-09-07T13:27:57.541Z,1.97
2022-09-07T13:28:57.542Z,2.66
2022-09-07T13:29:57.546Z,2.63
2022-09-07T13:30:57.631Z,2.30
2022-09-07T13:31:57.548Z,2.37
2022-09-07T13:33:08.931Z,2.28
2022-09-07T13:33:57.600Z,2.29
2022-09-07T13:34:57.569Z,2.09
2022-09-07T13:35:57.561Z,2.33
2022-09-07T13:36:57.553Z,2.05
2022-09-07T13:37:57.592Z,2.61
2022-09-07T13:38:57.591Z,2.33
2022-09-07T13:39:57.623Z,1.97
2022-09-07T13:40:57.557Z,2.16
2022-09-07T13:41:57.580Z,1.80
2022-09-07T13:42:57.572Z,2.17
2022-09-07T13:44:57.625Z,2.66
2022-09-07T13:45:57.669Z,2.37
2022-09-07T13:46:57.583Z,2.45
2022-09-07T13:47:57.592Z,2.45
2022-09-07T13:48:57.579Z,3.16
2022-09-07T13:49:57.584Z,2.67
2022-09-07T13:50:57.624Z,2.90
2022-09-07T13:51:57.594Z,3.04
2022-09-07T13:52:57.604Z,3.07
2022-09-07T13:53:57.609Z,2.64
2022-09-07T13:54:57.606Z,2.95
2022-09-07T13:55:57.609Z,2.82
2022-09-07T13:56:57.628Z,2.85
2022-09-07T13:59:57.687Z,2.99
2022-09-07T14:00:57.651Z,3.43
2022-09-07T14:01:57.779Z,2.52
2022-09-07T14:02:57.707Z,3.22
2022-09-07T14:03:57.713Z,3.00
2022-09-07T14:04:57.642Z,2.34
2022-09-07T14:05:57.642Z,2.95
2022-09-07T14:06:57.646Z,2.53
2022-09-07T14:07:57.639Z,2.00
2022-09-07T14:08:57.637Z,2.02
2022-09-07T14:09:57.672Z,2.27
2022-09-07T14:10:57.650Z,2.24
2022-09-07T14:12:57.647Z,2.65
2022-09-07T14:13:57.666Z,2.08
2022-09-07T14:14:57.654Z,2.01
2022-09-07T14:15:57.654Z,2.09
2022-09-07T14:16:57.768Z,1.62
2022-09-07T14:17:57.661Z,1.82
2022-09-07T14:18:57.681Z,1.61
2022-09-07T14:19:57.779Z,1.94
2022-09-07T14:20:57.684Z,1.70
2022-09-07T14:21:57.676Z,1.53
2022-09-07T14:22:57.681Z,1.74
2022-09-07T14:23:57.696Z,1.71
2022-09-07T14:24:57.695Z,1.29
2022-09-07T14:26:18.086Z,1.68
2022-09-07T14:26:57.709Z,1.64
2022-09-07T14:27:57.730Z,1.89
2022-09-07T14:28:57.692Z,1.37
2022-09-07T14:29:57.756Z,1.27
2022-09-07T14:30:57.759Z,1.67
2022-09-07T14:31:57.725Z,1.71
2022-09-07T14:32:57.717Z,1.59
2022-09-07T14:34:57.723Z,2.04
2022-09-07T14:35:57.740Z,1.84
2022-09-07T14:36:57.726Z,2.33
2022-09-07T14:37:57.727Z,2.30
2022-09-07T14:39:05.232Z,2.48
2022-09-07T14:39:58.022Z,2.07
2022-09-07T14:40:57.728Z,2.50
2022-09-07T14:41:57.740Z,2.39
2022-09-07T14:42:58.233Z,1.42
2022-09-07T14:44:57.808Z,1.83
2022-09-07T14:45:57.807Z,2.37
2022-09-07T14:46:57.763Z,1.96
2022-09-07T14:47:57.749Z,2.01
2022-09-07T14:48:57.762Z,1.33
2022-09-07T14:49:57.781Z,2.31
2022-09-07T14:51:57.776Z,1.80
2022-09-07T14:53:57.760Z,1.82
2022-09-07T14:54:57.763Z,2.21
2022-09-07T14:56:57.767Z,1.83
2022-09-07T14:57:57.784Z,1.93
2022-09-07T14:58:57.771Z,1.72
2022-09-07T14:59:57.869Z,1.95
2022-09-07T15:01:57.829Z,1.62
2022-09-07T15:02:57.785Z,1.77
2022-09-07T15:03:57.846Z,1.84
2022-09-07T15:04:57.801Z,1.50
2022-09-07T15:06:00.987Z,1.80
2022-09-07T15:07:01.371Z,2.13
2022-09-07T15:07:57.827Z,1.71
2022-09-07T15:09:57.945Z,2.04
2022-09-07T15:11:57.803Z,1.79
2022-09-07T15:12:57.820Z,2.02
2022-09-07T15:13:57.820Z,2.23
2022-09-07T15:14:57.833Z,2.00
2022-09-07T15:18:03.142Z,1.95
2022-09-07T15:18:57.837Z,2.29
2022-09-07T15:19:57.828Z,2.32
2022-09-07T15:20:57.890Z,2.22
2022-09-07T15:21:57.861Z,2.17
2022-09-07T15:22:57.829Z,2.56
2022-09-07T15:23:57.860Z,2.23
2022-09-07T15:24:57.841Z,2.22
2022-09-07T15:25:57.863Z,1.95
2022-09-07T15:27:03.821Z,2.11
2022-09-07T15:27:57.876Z,1.99
2022-09-07T15:29:11.252Z,2.02
2022-09-07T15:29:57.883Z,2.41
2022-09-07T15:32:03.786Z,2.60
2022-09-07T15:32:57.979Z,2.39
2022-09-07T15:33:57.860Z,2.76
2022-09-07T15:34:57.889Z,2.61
2022-09-07T15:35:58.766Z,2.75
2022-09-07T15:36:58.250Z,2.56
2022-09-07T15:38:02.267Z,2.63
2022-09-07T15:38:59.652Z,2.22
2022-09-07T15:39:57.925Z,2.12
2022-09-07T15:41:21.943Z,2.80
2022-09-07T15:41:59.046Z,2.36
2022-09-07T15:42:59.832Z,2.67
2022-09-07T15:43:57.903Z,3.19
2022-09-07T15:44:57.910Z,2.81
2022-09-07T15:45:58.001Z,2.74
2022-09-07T15:47:57.927Z,2.90
2022-09-07T15:48:57.927Z,2.84
2022-09-07T15:49:57.909Z,2.61
2022-09-07T15:50:59.133Z,2.87
2022-09-07T15:52:05.745Z,2.49
2022-09-07T15:53:01.017Z,3.06
2022-09-07T15:54:13.555Z,2.99
2022-09-07T15:54:57.925Z,3.35